EDHI

Hamburg-Finkenwerder Airport

Hamburg, Germany
METAR EDHI 170550Z AUTO 34007KT 300V360 9999 // BKN016/// 01/M01 Q1016
Observed Flight Rules
Dec-17 @ 05:50 UTC (28 minutes ago) Marginal Visual Flight Rules
Wind Visibility Clouds
340° at 7 knots 10,000+ meters
  • Broken at 1,600' AGL
Temperatures Readings
Current 1°C / 34°F
Dewpoint -1°C / 30°F
Humidity 87%
Altimeter 30" Hg
Pressure 1016 hPa
Elevation 13
METAR EDHI 170550Z AUTO 34007KT 300V360 9999 // BKN016/// 01/M01 Q1016
Observed Flight Rules
Dec-17 @ 05:50 UTC
(28 minutes ago)
MVFR
Wind Visibility
340° at 7 knots 10,000+ meters
Clouds
  • Broken at 1,600' AGL
Temperature Dewpoint
1°C / 34°F -1°C / 30°F
Humidity Altimeter Pressure
87% 30" Hg 1016 hPa